Weather Center

VHHH METAR :
VHHH 140836Z 23008KT 190V250 9999 +SHRA FEW022 SCT035 31/26 Q1006 NOSIG

VHHH TAF :
VHHH 140500Z 1406/1512 VRB05KT 9999 FEW025 TX33/1406Z TX34/1506Z TN28/1422Z
TEMPO 1406/1410 27010KT
TEMPO 1410/1415 12010KT
TEMPO 1502/1510 27010KT

VMMC METAR :
VMMCH

VMMC TAF :
VMMC 140500Z 1406/1512 18008KT 9999 FEW020

Comments are closed